الصفحة الرئيسية
METAR-TAF:

METAR-TAF

مطار :

هوبز, نيومكسيكو, الولايات المتحدة

دائرة عرض: 32-41N, خط طول: 103-13W, ارتفاع: 1115 متر

مراقبة الطقس الحالي

تاريخ ووقت الإصدار 38 دقيقة قبل الساعة 21:50UTC
ريح 10 عقدة من الغرب/الجنوب الغربي تتزايد حتى 17 عقدة
درجة الحرارة 22°درجة مئوية
الرطوبة 9%
ضغط 1016 hPa
الرؤية: 16.1 كم
سماء صافية

METAR: KHOB 232150Z 25010G17KT 10SM CLR 22/M12 A3000

زمن: 16:28 (22:28 UTC)

توقعات

تاريخ ووقت الإصدار 4ساعات و 26 دقيقة قبل الساعة 18:02UTC
التوقعات صالحة من23 الساعة 18 UTC إلى 24 الساعة 18 UTC
ريح 12 عقدة من الغرب/الجنوب الغربي تتزايد حتى 22 عقدة
الرؤية: 10 كم
سماء صافية
من 24 الساعة 0100 UTC
ريح 6 عقدة من الغرب/الجنوب الغربي
الرؤية: 10 كم
سماء صافية
من 24 الساعة 1300 UTC
ريح 8 عقدة من الغرب
الرؤية: 10 كم
سماء صافية

TAF: KHOB 231802Z 2318/2418 24012G22KT P6SM SKC FM240100 24006KT P6SM SKC FM241300 27008KT P6SM SKC

أرصاد الطقس والتوقعات من أكثر من 4000 مطار (تقارير الطقس للمطار METAR والتنبؤ بالطقس بالمطارTAF).

المحطات المتاحة هي النقط الصفراء والحمراء على الخريطة.

حرك المؤشر فوق النقطة لمعرفة اسم المحطة.

ثم انقر لمعرفة أرصاد وتوقعات الطقس.

لتغيير الخارطة: اضغط على الأزرار الخضراء مع رمز الصليب الأسود للتكبير. على الزر الأخضر مع شرطة للتصغير، أو على الأسهم الخضراء للخرائط المجاورة.


METAR-TAF: